createdAt,value
2022-08-16T00:00:03.512Z,87.89
2022-08-16T00:02:33.556Z,87.66
2022-08-16T00:05:01.002Z,87.55
2022-08-16T00:07:30.392Z,88.09
2022-08-16T00:09:59.034Z,88.01
2022-08-16T00:12:30.227Z,87.79
2022-08-16T00:15:00.001Z,87.99
2022-08-16T00:17:26.994Z,87.90
2022-08-16T00:19:55.577Z,87.79
2022-08-16T00:22:24.723Z,88.12
2022-08-16T00:24:54.548Z,88.19
2022-08-16T00:27:23.034Z,88.12
2022-08-16T00:30:00.493Z,87.83
2022-08-16T00:32:32.986Z,87.94
2022-08-16T00:35:01.643Z,88.21
2022-08-16T00:37:57.256Z,88.10
2022-08-16T00:40:34.755Z,88.07
2022-08-16T00:43:11.919Z,88.10
2022-08-16T00:46:01.140Z,87.97
2022-08-16T00:48:48.088Z,88.23
2022-08-16T00:51:17.459Z,88.18
2022-08-16T00:53:45.617Z,88.33
2022-08-16T00:56:57.007Z,88.30
2022-08-16T00:59:05.248Z,88.06
2022-08-16T01:01:32.865Z,87.95
2022-08-16T01:04:03.233Z,87.81
2022-08-16T01:06:48.894Z,88.04
2022-08-16T01:09:20.541Z,87.73
2022-08-16T01:11:55.199Z,87.48
2022-08-16T01:14:29.827Z,87.33
2022-08-16T01:16:59.340Z,87.60
2022-08-16T01:19:33.339Z,87.80
2022-08-16T01:22:47.644Z,87.96
2022-08-16T01:25:00.706Z,88.08
2022-08-16T01:27:39.182Z,87.86
2022-08-16T01:30:20.292Z,88.03
2022-08-16T01:33:02.007Z,87.72
2022-08-16T01:35:57.981Z,87.11
2022-08-16T01:38:31.278Z,87.63
2022-08-16T01:41:19.291Z,87.72
2022-08-16T01:43:53.866Z,88.40
2022-08-16T01:46:39.117Z,89.15
2022-08-16T01:49:18.909Z,89.91
2022-08-16T01:51:53.440Z,90.34
2022-08-16T01:54:30.899Z,90.44
2022-08-16T01:56:59.602Z,90.52
2022-08-16T01:59:28.026Z,90.25
2022-08-16T02:02:00.043Z,90.21
2022-08-16T02:04:48.017Z,90.01
2022-08-16T02:07:18.994Z,89.95
2022-08-16T02:09:57.101Z,89.98
2022-08-16T02:12:40.137Z,90.20
2022-08-16T02:15:24.890Z,90.98
2022-08-16T02:17:54.695Z,90.93
2022-08-16T02:20:26.475Z,90.48
2022-08-16T02:22:59.913Z,90.07
2022-08-16T02:25:51.145Z,90.00
2022-08-16T02:28:17.389Z,89.76
2022-08-16T02:30:50.675Z,89.68
2022-08-16T02:33:19.161Z,89.89
2022-08-16T02:35:54.271Z,89.71
2022-08-16T02:38:25.264Z,89.57
2022-08-16T02:40:54.671Z,89.82
2022-08-16T02:43:26.840Z,89.83
2022-08-16T02:45:56.528Z,89.72
2022-08-16T02:48:29.693Z,89.62
2022-08-16T02:51:06.202Z,89.64
2022-08-16T02:53:43.390Z,89.51
2022-08-16T02:56:14.802Z,89.68
2022-08-16T02:58:44.163Z,90.01
2022-08-16T03:01:24.890Z,90.57
2022-08-16T03:04:39.727Z,90.71
2022-08-16T03:06:56.696Z,91.77
2022-08-16T03:09:38.022Z,91.26
2022-08-16T03:12:05.835Z,91.46
2022-08-16T03:14:34.562Z,91.21
2022-08-16T03:17:03.077Z,90.93
2022-08-16T03:19:47.116Z,90.99
2022-08-16T03:22:19.495Z,90.92
2022-08-16T03:25:00.929Z,90.87
2022-08-16T03:27:31.334Z,90.99
2022-08-16T03:30:16.937Z,91.27
2022-08-16T03:32:51.814Z,91.01
2022-08-16T03:35:33.025Z,90.87
2022-08-16T03:38:34.159Z,91.01
2022-08-16T03:40:56.221Z,90.95
2022-08-16T03:43:51.832Z,90.14
2022-08-16T03:46:48.374Z,88.53
2022-08-16T03:49:02.215Z,88.54
2022-08-16T03:51:29.056Z,89.01
2022-08-16T03:54:01.909Z,89.01
2022-08-16T03:56:31.568Z,89.50
2022-08-16T03:59:00.021Z,89.95
2022-08-16T04:01:32.669Z,89.88
2022-08-16T04:04:01.403Z,90.60
2022-08-16T04:06:29.427Z,91.09
2022-08-16T04:08:56.267Z,91.64
2022-08-16T04:11:24.643Z,92.09
2022-08-16T04:14:00.597Z,92.28
2022-08-16T04:16:39.698Z,92.72
2022-08-16T04:19:31.646Z,93.29
2022-08-16T04:22:00.899Z,93.64
2022-08-16T04:24:32.293Z,93.77
2022-08-16T04:26:59.672Z,93.22
2022-08-16T04:29:27.888Z,93.46
2022-08-16T04:32:13.841Z,93.39
2022-08-16T04:34:43.382Z,93.25
2022-08-16T04:37:12.234Z,93.06
2022-08-16T04:39:47.339Z,93.03
2022-08-16T04:42:26.528Z,93.03
2022-08-16T04:44:58.527Z,91.26
2022-08-16T04:47:35.338Z,90.79
2022-08-16T04:50:12.004Z,91.23
2022-08-16T04:52:57.924Z,91.21
2022-08-16T04:55:37.909Z,90.97
2022-08-16T04:58:44.057Z,90.56
2022-08-16T05:00:57.470Z,91.48
2022-08-16T05:03:24.762Z,92.13
2022-08-16T05:05:59.373Z,91.17
2022-08-16T05:08:32.772Z,90.71
2022-08-16T05:11:08.863Z,91.05
2022-08-16T05:13:41.811Z,90.99
2022-08-16T05:16:21.797Z,91.37
2022-08-16T05:18:57.026Z,91.03
2022-08-16T05:21:38.150Z,90.46
2022-08-16T05:24:09.137Z,89.37
2022-08-16T05:26:40.920Z,88.62
2022-08-16T05:29:15.302Z,88.44
2022-08-16T05:31:55.897Z,88.69
2022-08-16T05:34:22.799Z,88.36
2022-08-16T05:36:57.234Z,87.90
2022-08-16T05:39:29.420Z,87.07
2022-08-16T05:42:01.242Z,86.33
2022-08-16T05:44:28.542Z,85.82
2022-08-16T05:47:00.363Z,85.19
2022-08-16T05:49:38.488Z,85.25
2022-08-16T05:52:17.310Z,85.36
2022-08-16T05:55:00.999Z,85.13
2022-08-16T05:57:35.531Z,84.74
2022-08-16T06:00:08.946Z,84.63
2022-08-16T06:02:45.648Z,83.43
2022-08-16T06:05:41.628Z,82.22
2022-08-16T06:08:09.825Z,81.31
2022-08-16T06:11:10.445Z,80.40
2022-08-16T06:13:42.356Z,79.16
2022-08-16T06:16:18.194Z,78.72
2022-08-16T06:18:47.961Z,77.67
2022-08-16T06:21:23.808Z,77.49
2022-08-16T06:23:54.896Z,77.83
2022-08-16T06:26:23.576Z,78.31
2022-08-16T06:28:50.392Z,77.53
2022-08-16T06:31:33.349Z,76.86
2022-08-16T06:34:55.495Z,75.79
2022-08-16T06:37:02.198Z,75.57
2022-08-16T06:39:34.354Z,75.04
2022-08-16T06:42:06.314Z,72.99
2022-08-16T06:44:56.959Z,73.06
2022-08-16T06:47:54.396Z,72.70
2022-08-16T06:50:28.937Z,71.04
2022-08-16T06:53:19.850Z,70.43
2022-08-16T06:55:59.358Z,70.65
2022-08-16T06:58:35.236Z,70.23
2022-08-16T07:01:09.865Z,69.65
2022-08-16T07:03:55.847Z,69.71
2022-08-16T07:06:28.075Z,68.63
2022-08-16T07:09:00.186Z,66.91
2022-08-16T07:11:47.546Z,66.64
2022-08-16T07:14:25.217Z,65.90
2022-08-16T07:16:57.835Z,66.34
2022-08-16T07:20:01.494Z,65.41
2022-08-16T07:22:38.767Z,65.63
2022-08-16T07:25:03.761Z,66.08
2022-08-16T07:27:33.684Z,67.36
2022-08-16T07:30:45.481Z,66.33
2022-08-16T07:32:57.019Z,68.41
2022-08-16T07:35:24.866Z,69.02
2022-08-16T07:37:51.669Z,69.00
2022-08-16T07:40:49.536Z,68.63
2022-08-16T07:43:12.923Z,68.39
2022-08-16T07:45:42.224Z,67.32
2022-08-16T07:48:11.875Z,67.39
2022-08-16T07:50:56.789Z,67.30
2022-08-16T07:53:31.117Z,65.75
2022-08-16T07:56:00.339Z,65.04
2022-08-16T07:58:36.316Z,65.36
2022-08-16T08:01:14.980Z,64.46
2022-08-16T08:03:49.278Z,62.99
2022-08-16T08:06:25.077Z,63.45
2022-08-16T08:08:57.280Z,64.00
2022-08-16T08:11:28.023Z,63.43
2022-08-16T08:13:57.627Z,63.27
2022-08-16T08:16:32.694Z,61.63
2022-08-16T08:19:02.693Z,60.94
2022-08-16T08:21:56.627Z,60.76
2022-08-16T08:24:31.839Z,60.75
2022-08-16T08:27:02.335Z,59.65
2022-08-16T08:29:37.138Z,59.93
2022-08-16T08:32:57.726Z,58.95
2022-08-16T08:35:03.205Z,57.75
2022-08-16T08:37:55.751Z,57.83
2022-08-16T08:40:27.623Z,58.00
2022-08-16T08:43:12.259Z,57.52
2022-08-16T08:45:55.721Z,55.80
2022-08-16T08:48:33.341Z,56.10
2022-08-16T08:51:09.211Z,56.43
2022-08-16T08:53:47.190Z,55.89
2022-08-16T08:56:26.921Z,54.83
2022-08-16T08:59:12.993Z,53.40
2022-08-16T09:01:43.175Z,52.56
2022-08-16T09:04:26.946Z,51.79
2022-08-16T09:06:55.542Z,52.32
2022-08-16T09:09:23.657Z,51.48
2022-08-16T09:12:06.638Z,51.45
2022-08-16T09:14:49.446Z,52.84
2022-08-16T09:17:45.590Z,50.79
2022-08-16T09:20:13.572Z,50.17
2022-08-16T09:22:40.648Z,51.88
2022-08-16T09:25:11.001Z,51.90
2022-08-16T09:27:57.219Z,51.06
2022-08-16T09:30:34.052Z,49.51
2022-08-16T09:33:06.709Z,48.81
2022-08-16T09:35:37.297Z,47.88
2022-08-16T09:38:05.318Z,48.37
2022-08-16T09:40:42.677Z,47.58
2022-08-16T09:43:21.096Z,46.09
2022-08-16T09:45:58.788Z,46.38
2022-08-16T09:48:44.419Z,47.60
2022-08-16T09:51:15.592Z,47.92
2022-08-16T09:53:43.190Z,48.69
2022-08-16T09:56:31.613Z,47.87
2022-08-16T09:59:05.401Z,48.60
2022-08-16T10:01:43.542Z,48.56
2022-08-16T10:04:34.356Z,48.40
2022-08-16T10:09:45.076Z,47.46
2022-08-16T10:12:34.378Z,45.43
2022-08-16T10:15:01.040Z,44.41
2022-08-16T10:17:28.816Z,45.06
2022-08-16T10:19:56.198Z,45.17
2022-08-16T10:22:23.270Z,45.41
2022-08-16T10:24:55.950Z,46.63
2022-08-16T10:27:45.700Z,47.89
2022-08-16T10:30:25.547Z,48.90
2022-08-16T10:32:55.204Z,48.48
2022-08-16T10:35:22.957Z,48.87
2022-08-16T10:37:52.164Z,48.22
2022-08-16T10:40:29.520Z,47.65
2022-08-16T10:43:00.323Z,45.24
2022-08-16T10:45:36.520Z,45.37
2022-08-16T10:48:27.261Z,45.94
2022-08-16T10:50:53.615Z,46.71
2022-08-16T10:53:21.683Z,47.01
2022-08-16T10:55:48.618Z,46.72
2022-08-16T10:58:33.947Z,46.54
2022-08-16T11:03:57.323Z,47.38
2022-08-16T11:06:26.830Z,48.36
2022-08-16T11:14:29.894Z,46.94
2022-08-16T11:17:02.170Z,44.65
2022-08-16T11:19:30.457Z,42.80
2022-08-16T11:22:23.321Z,42.08
2022-08-16T11:24:44.631Z,42.16
2022-08-16T11:27:19.583Z,42.06
2022-08-16T11:29:46.748Z,43.35
2022-08-16T11:32:13.384Z,43.25
2022-08-16T11:35:09.998Z,43.14
2022-08-16T11:38:24.102Z,43.83
2022-08-16T11:40:24.588Z,44.35
2022-08-16T11:42:59.360Z,43.76
2022-08-16T11:45:26.036Z,43.76
2022-08-16T11:47:53.607Z,43.74
2022-08-16T11:50:20.832Z,44.50
2022-08-16T11:52:47.477Z,43.69
2022-08-16T11:55:14.256Z,43.34
2022-08-16T11:57:41.330Z,43.50
2022-08-16T12:00:42.653Z,42.79
2022-08-16T12:03:00.897Z,40.88
2022-08-16T12:05:28.686Z,40.31
2022-08-16T12:07:55.904Z,38.74
2022-08-16T12:10:29.082Z,39.08
2022-08-16T12:12:57.973Z,39.09
2022-08-16T12:15:29.293Z,39.54
2022-08-16T12:17:59.172Z,39.04
2022-08-16T12:20:30.331Z,40.20
2022-08-16T12:22:59.562Z,40.75
2022-08-16T12:25:29.294Z,41.50
2022-08-16T12:27:57.151Z,41.57
2022-08-16T12:30:34.811Z,40.45
2022-08-16T12:33:07.634Z,39.36
2022-08-16T12:35:37.834Z,38.36
2022-08-16T12:38:38.268Z,38.46
2022-08-16T12:40:57.022Z,39.79
2022-08-16T12:43:25.371Z,40.12
2022-08-16T12:45:54.343Z,39.89
2022-08-16T12:48:44.782Z,39.45
2022-08-16T12:51:19.381Z,38.63
2022-08-16T12:53:47.301Z,37.90
2022-08-16T12:56:14.610Z,36.97
2022-08-16T12:58:48.529Z,36.89
2022-08-16T13:01:23.433Z,36.63
2022-08-16T13:04:08.297Z,36.13
2022-08-16T13:06:40.035Z,35.95
2022-08-16T13:09:20.749Z,35.59
2022-08-16T13:12:01.647Z,34.94
2022-08-16T13:14:39.101Z,34.88
2022-08-16T13:17:09.036Z,35.38
2022-08-16T13:20:06.161Z,33.97
2022-08-16T13:22:24.583Z,34.73
2022-08-16T13:24:53.463Z,36.22
2022-08-16T13:27:59.166Z,37.08
2022-08-16T13:30:21.705Z,37.92
2022-08-16T13:32:55.302Z,38.23
2022-08-16T13:35:24.032Z,38.36
2022-08-16T13:37:52.100Z,39.05
2022-08-16T13:40:21.234Z,39.47
2022-08-16T13:42:49.643Z,39.34
2022-08-16T13:45:17.633Z,39.13
2022-08-16T13:47:48.576Z,40.03
2022-08-16T13:50:30.993Z,39.71
2022-08-16T13:53:07.693Z,38.81
2022-08-16T13:55:34.780Z,37.79
2022-08-16T13:58:37.290Z,37.40
2022-08-16T14:00:52.779Z,35.66
2022-08-16T14:03:21.146Z,35.80
2022-08-16T14:05:48.638Z,35.76
2022-08-16T14:08:16.575Z,35.52
2022-08-16T14:10:44.292Z,35.26
2022-08-16T14:13:13.649Z,35.75
2022-08-16T14:15:47.617Z,36.04
2022-08-16T14:18:17.378Z,35.72
2022-08-16T14:20:48.359Z,35.99
2022-08-16T14:23:15.697Z,35.77
2022-08-16T14:25:42.627Z,35.83
2022-08-16T14:28:09.642Z,35.31
2022-08-16T14:30:38.036Z,35.00
2022-08-16T14:33:07.425Z,34.77
2022-08-16T14:35:48.579Z,35.23
2022-08-16T14:38:19.226Z,35.19
2022-08-16T14:40:55.471Z,34.98
2022-08-16T14:43:25.922Z,35.28
2022-08-16T14:45:56.603Z,34.97
2022-08-16T14:48:26.097Z,34.99
2022-08-16T14:50:54.392Z,35.55
2022-08-16T14:53:22.979Z,35.18
2022-08-16T14:55:49.712Z,35.24
2022-08-16T14:58:19.497Z,35.08
2022-08-16T15:00:50.710Z,35.22
2022-08-16T15:03:21.860Z,35.14
2022-08-16T15:05:49.560Z,35.45
2022-08-16T15:08:21.262Z,35.84
2022-08-16T15:11:03.057Z,35.73
2022-08-16T15:13:29.747Z,36.22
2022-08-16T15:16:01.907Z,36.00
2022-08-16T15:18:31.987Z,35.93
2022-08-16T15:21:00.654Z,36.59
2022-08-16T15:23:28.424Z,36.26
2022-08-16T15:26:02.837Z,36.33
2022-08-16T15:28:32.792Z,36.76
2022-08-16T15:31:06.446Z,36.55
2022-08-16T15:33:42.157Z,36.91
2022-08-16T15:36:09.588Z,36.93
2022-08-16T15:39:02.254Z,37.11
2022-08-16T15:41:42.758Z,37.24
2022-08-16T15:44:17.979Z,37.32
2022-08-16T15:46:56.715Z,36.99
2022-08-16T15:49:38.134Z,36.54
2022-08-16T15:52:29.583Z,37.22
2022-08-16T15:54:59.390Z,37.67
2022-08-16T15:57:36.802Z,38.17
2022-08-16T16:00:14.398Z,37.95
2022-08-16T16:02:43.028Z,38.06
2022-08-16T16:05:10.673Z,37.77
2022-08-16T16:07:40.960Z,37.99
2022-08-16T16:10:22.726Z,38.14
2022-08-16T16:12:59.702Z,38.13
2022-08-16T16:15:29.784Z,38.51
2022-08-16T16:17:57.029Z,39.02
2022-08-16T16:20:27.453Z,39.20
2022-08-16T16:23:03.281Z,38.97
2022-08-16T16:25:31.625Z,39.43
2022-08-16T16:27:59.808Z,39.06
2022-08-16T16:30:38.190Z,38.81
2022-08-16T16:33:20.431Z,39.15
2022-08-16T16:35:48.019Z,39.76
2022-08-16T16:38:30.743Z,39.80
2022-08-16T16:40:59.811Z,39.27
2022-08-16T16:43:31.351Z,39.70
2022-08-16T16:45:59.195Z,39.73
2022-08-16T16:48:29.833Z,39.59
2022-08-16T16:51:09.930Z,39.72
2022-08-16T16:53:41.335Z,40.65
2022-08-16T16:56:19.539Z,41.21
2022-08-16T16:58:57.670Z,40.30
2022-08-16T17:01:59.507Z,40.04
2022-08-16T17:04:31.768Z,40.09
2022-08-16T17:07:01.132Z,40.09
2022-08-16T17:09:27.867Z,39.96
2022-08-16T17:11:55.962Z,39.73
2022-08-16T17:14:33.036Z,39.82
2022-08-16T17:17:06.796Z,40.25
2022-08-16T17:19:40.201Z,40.56
2022-08-16T17:22:14.303Z,40.57
2022-08-16T17:24:57.263Z,40.97
2022-08-16T17:27:32.858Z,41.16
2022-08-16T17:30:29.516Z,41.44
2022-08-16T17:33:11.334Z,41.69
2022-08-16T17:35:55.129Z,41.77
2022-08-16T17:38:39.083Z,41.31
2022-08-16T17:41:10.306Z,41.74
2022-08-16T17:43:43.989Z,41.68
2022-08-16T17:46:50.977Z,42.40
2022-08-16T17:49:00.019Z,42.42
2022-08-16T17:51:27.262Z,42.54
2022-08-16T17:53:54.763Z,42.98
2022-08-16T17:56:21.808Z,43.31
2022-08-16T17:58:48.611Z,43.87
2022-08-16T18:01:15.643Z,43.73
2022-08-16T18:04:07.120Z,44.27
2022-08-16T18:06:29.458Z,44.40
2022-08-16T18:09:02.619Z,45.17
2022-08-16T18:11:33.916Z,45.09
2022-08-16T18:14:01.120Z,45.49
2022-08-16T18:16:27.853Z,45.21
2022-08-16T18:18:54.569Z,44.76
2022-08-16T18:21:40.216Z,44.41
2022-08-16T18:24:07.107Z,44.51
2022-08-16T18:26:34.287Z,44.78
2022-08-16T18:29:01.344Z,45.56
2022-08-16T18:31:28.145Z,46.75
2022-08-16T18:33:56.003Z,47.49
2022-08-16T18:36:24.266Z,48.31
2022-08-16T18:38:53.038Z,48.53
2022-08-16T18:41:23.166Z,48.86
2022-08-16T18:44:24.217Z,49.16
2022-08-16T18:46:42.200Z,49.11
2022-08-16T18:49:09.225Z,49.48
2022-08-16T18:51:36.949Z,49.92
2022-08-16T18:54:04.586Z,50.10
2022-08-16T18:56:55.249Z,50.62
2022-08-16T18:59:18.572Z,51.08
2022-08-16T19:01:46.527Z,51.54
2022-08-16T19:04:55.212Z,51.95
2022-08-16T19:07:01.276Z,52.19
2022-08-16T19:09:28.226Z,52.23
2022-08-16T19:11:54.905Z,52.63
2022-08-16T19:14:26.885Z,52.74
2022-08-16T19:16:53.865Z,53.43
2022-08-16T19:19:22.747Z,53.65
2022-08-16T19:21:49.492Z,54.17
2022-08-16T19:24:18.149Z,54.56
2022-08-16T19:26:45.481Z,55.00
2022-08-16T19:29:12.373Z,55.71
2022-08-16T19:31:40.317Z,55.46
2022-08-16T19:34:08.317Z,55.86
2022-08-16T19:36:38.452Z,56.12
2022-08-16T19:39:10.940Z,56.34
2022-08-16T19:41:42.740Z,56.47
2022-08-16T19:44:09.807Z,56.28
2022-08-16T19:46:37.798Z,55.44
2022-08-16T19:49:05.101Z,55.33
2022-08-16T19:51:32.058Z,56.00
2022-08-16T19:53:58.793Z,56.25
2022-08-16T19:56:26.892Z,56.47
2022-08-16T20:01:43.221Z,57.30
2022-08-16T20:04:14.391Z,57.64
2022-08-16T20:06:42.252Z,58.21
2022-08-16T20:09:10.996Z,58.26
2022-08-16T20:11:41.225Z,57.90
2022-08-16T20:14:07.968Z,58.12
2022-08-16T20:16:34.624Z,58.42
2022-08-16T20:19:01.381Z,58.83
2022-08-16T20:21:28.461Z,59.22
2022-08-16T20:24:09.883Z,59.49
2022-08-16T20:26:41.967Z,59.86
2022-08-16T20:29:08.735Z,60.04
2022-08-16T20:31:35.781Z,60.36
2022-08-16T20:34:02.933Z,60.48
2022-08-16T20:36:29.963Z,60.54
2022-08-16T20:38:59.831Z,60.70
2022-08-16T20:41:27.351Z,60.40
2022-08-16T20:43:54.953Z,60.52
2022-08-16T20:46:24.286Z,60.28
2022-08-16T20:48:51.184Z,60.23
2022-08-16T20:51:18.458Z,60.08
2022-08-16T20:53:45.394Z,60.13
2022-08-16T20:56:13.368Z,59.22
2022-08-16T20:58:40.384Z,58.92
2022-08-16T21:01:08.390Z,58.90
2022-08-16T21:03:36.700Z,58.53
2022-08-16T21:06:04.280Z,58.72
2022-08-16T21:08:52.338Z,59.62
2022-08-16T21:11:21.715Z,60.04
2022-08-16T21:13:48.513Z,60.28
2022-08-16T21:16:17.320Z,60.55
2022-08-16T21:18:44.187Z,60.58
2022-08-16T21:21:12.930Z,60.68
2022-08-16T21:23:41.352Z,60.83
2022-08-16T21:26:10.931Z,61.11
2022-08-16T21:28:43.339Z,60.60
2022-08-16T21:31:12.414Z,60.71
2022-08-16T21:33:39.840Z,60.64
2022-08-16T21:36:07.377Z,60.85
2022-08-16T21:38:34.173Z,60.65
2022-08-16T21:41:03.009Z,60.49
2022-08-16T21:43:33.539Z,60.36
2022-08-16T21:46:02.580Z,60.41
2022-08-16T21:48:33.658Z,60.59
2022-08-16T21:51:05.530Z,60.87
2022-08-16T21:53:32.260Z,61.65
2022-08-16T21:56:00.349Z,62.20
2022-08-16T21:58:27.667Z,62.92
2022-08-16T22:00:54.714Z,63.08
2022-08-16T22:03:21.544Z,63.38
2022-08-16T22:06:00.135Z,63.49
2022-08-16T22:08:35.891Z,63.74
2022-08-16T22:11:18.823Z,63.84
2022-08-16T22:13:57.635Z,63.70
2022-08-16T22:16:29.228Z,64.03
2022-08-16T22:18:57.755Z,64.70
2022-08-16T22:21:26.641Z,64.95
2022-08-16T22:23:55.577Z,65.38
2022-08-16T22:26:31.771Z,65.74
2022-08-16T22:29:01.361Z,65.65
2022-08-16T22:31:28.850Z,65.45
2022-08-16T22:33:56.831Z,65.34
2022-08-16T22:36:23.885Z,65.46
2022-08-16T22:38:59.583Z,65.56
2022-08-16T22:41:32.242Z,65.24
2022-08-16T22:44:00.997Z,64.67
2022-08-16T22:46:28.359Z,64.70
2022-08-16T22:48:55.096Z,64.50
2022-08-16T22:51:24.313Z,64.61
2022-08-16T22:53:52.768Z,64.83
2022-08-16T22:56:20.113Z,65.13
2022-08-16T22:58:47.133Z,65.27
2022-08-16T23:01:14.653Z,65.11
2022-08-16T23:03:42.226Z,63.98
2022-08-16T23:06:10.436Z,63.15
2022-08-16T23:08:40.779Z,63.19
2022-08-16T23:11:15.141Z,62.51
2022-08-16T23:13:53.241Z,62.62
2022-08-16T23:16:33.330Z,63.34
2022-08-16T23:19:08.104Z,64.24
2022-08-16T23:21:37.645Z,64.80
2022-08-16T23:24:05.700Z,65.49
2022-08-16T23:26:43.985Z,65.80
2022-08-16T23:29:23.249Z,66.34
2022-08-16T23:31:56.787Z,66.65
2022-08-16T23:34:24.283Z,67.31
2022-08-16T23:36:51.129Z,67.66
2022-08-16T23:39:17.792Z,67.76
2022-08-16T23:41:44.563Z,67.94
2022-08-16T23:44:56.817Z,67.86
2022-08-16T23:46:57.964Z,67.85
2022-08-16T23:49:57.019Z,67.72
2022-08-16T23:52:11.649Z,68.35
2022-08-16T23:54:38.559Z,69.35
2022-08-16T23:57:05.355Z,69.00
2022-08-16T23:59:38.049Z,68.93
